createdAt,value
2018-03-04T00:02:11.981Z,61.40
2018-03-04T00:04:39.683Z,61.40
2018-03-04T00:07:07.305Z,61.60
2018-03-04T00:09:35.644Z,61.60
2018-03-04T00:12:04.174Z,62.00
2018-03-04T00:14:32.359Z,61.40
2018-03-04T00:17:00.469Z,62.10
2018-03-04T00:19:28.829Z,62.60
2018-03-04T00:21:56.497Z,62.20
2018-03-04T00:24:24.489Z,62.90
2018-03-04T00:26:52.895Z,64.00
2018-03-04T00:29:20.571Z,62.80
2018-03-04T00:31:48.525Z,62.90
2018-03-04T00:34:16.127Z,62.80
2018-03-04T00:36:43.800Z,62.70
2018-03-04T00:39:11.940Z,62.90
2018-03-04T00:41:39.548Z,63.00
2018-03-04T00:44:07.923Z,63.80
2018-03-04T00:46:35.687Z,63.50
2018-03-04T00:49:04.871Z,63.50
2018-03-04T00:51:32.644Z,62.90
2018-03-04T00:54:00.240Z,62.80
2018-03-04T00:56:27.865Z,63.00
2018-03-04T00:58:55.487Z,63.10
2018-03-04T01:01:23.288Z,63.40
2018-03-04T01:03:50.947Z,63.10
2018-03-04T01:06:18.690Z,63.00
2018-03-04T01:08:46.325Z,63.10
2018-03-04T01:11:13.921Z,63.60
2018-03-04T01:13:41.865Z,63.60
2018-03-04T01:16:09.656Z,63.00
2018-03-04T01:18:37.418Z,63.00
2018-03-04T01:21:06.203Z,63.90
2018-03-04T01:23:34.120Z,63.30
2018-03-04T01:26:01.812Z,63.00
2018-03-04T01:28:29.554Z,63.10
2018-03-04T01:30:57.190Z,63.70
2018-03-04T01:33:25.565Z,65.10
2018-03-04T01:35:53.996Z,64.60
2018-03-04T01:38:21.605Z,63.90
2018-03-04T01:40:49.973Z,64.10
2018-03-04T01:43:18.159Z,63.80
2018-03-04T01:45:46.513Z,63.80
2018-03-04T01:48:14.117Z,63.80
2018-03-04T01:50:42.054Z,63.10
2018-03-04T01:53:10.531Z,63.50
2018-03-04T01:55:38.207Z,63.00
2018-03-04T01:58:05.814Z,64.10
2018-03-04T02:00:33.417Z,63.00
2018-03-04T02:03:01.018Z,62.10
2018-03-04T02:05:29.051Z,62.10
2018-03-04T02:07:56.889Z,62.10
2018-03-04T02:10:25.360Z,62.10
2018-03-04T02:12:52.980Z,62.60
2018-03-04T02:15:21.524Z,62.40
2018-03-04T02:17:49.926Z,62.70
2018-03-04T02:20:17.539Z,61.30
2018-03-04T02:22:45.521Z,61.10
2018-03-04T02:25:13.139Z,61.20
2018-03-04T02:27:40.752Z,61.20
2018-03-04T02:30:08.579Z,61.10
2018-03-04T02:32:36.713Z,61.20
2018-03-04T02:35:04.584Z,61.70
2018-03-04T02:37:32.949Z,61.50
2018-03-04T02:40:00.577Z,60.90
2018-03-04T02:42:28.181Z,61.80
2018-03-04T02:44:56.053Z,61.80
2018-03-04T02:47:23.988Z,61.50
2018-03-04T02:49:53.475Z,61.70
2018-03-04T02:52:21.066Z,61.20
2018-03-04T02:54:48.684Z,60.70
2018-03-04T02:57:17.254Z,60.70
2018-03-04T02:59:44.857Z,61.00
2018-03-04T03:02:12.996Z,61.50
2018-03-04T03:04:40.616Z,61.00
2018-03-04T03:07:08.210Z,62.00
2018-03-04T03:09:37.109Z,60.30
2018-03-04T03:12:04.988Z,60.90
2018-03-04T03:14:32.828Z,61.20
2018-03-04T03:17:01.203Z,61.40
2018-03-04T03:19:29.580Z,62.00
2018-03-04T03:21:58.148Z,62.00
2018-03-04T03:24:26.732Z,62.10
2018-03-04T03:26:55.102Z,62.40
2018-03-04T03:29:22.697Z,61.50
2018-03-04T03:31:51.331Z,61.80
2018-03-04T03:34:18.912Z,62.30
2018-03-04T03:36:47.334Z,62.20
2018-03-04T03:39:14.942Z,61.70
2018-03-04T03:41:42.552Z,61.70
2018-03-04T03:44:10.732Z,61.60
2018-03-04T03:46:38.886Z,62.10
2018-03-04T03:49:06.725Z,62.00
2018-03-04T03:51:35.117Z,62.20
2018-03-04T03:54:03.480Z,62.00
2018-03-04T03:56:31.150Z,61.90
2018-03-04T03:58:59.819Z,61.20
2018-03-04T04:01:29.368Z,61.20
2018-03-04T04:03:56.953Z,61.80
2018-03-04T04:06:25.596Z,62.60
2018-03-04T04:08:53.315Z,61.20
2018-03-04T04:11:20.931Z,61.30
2018-03-04T04:13:48.513Z,61.80
2018-03-04T04:16:16.112Z,60.90
2018-03-04T04:18:43.711Z,61.30
2018-03-04T04:21:11.540Z,60.50
2018-03-04T04:23:39.525Z,60.60
2018-03-04T04:26:07.243Z,60.70
2018-03-04T04:28:34.839Z,60.70
2018-03-04T04:31:02.447Z,61.20
2018-03-04T04:33:30.064Z,61.40
2018-03-04T04:35:57.751Z,60.70
2018-03-04T04:38:25.409Z,60.60
2018-03-04T04:40:53.000Z,60.50
2018-03-04T04:43:21.375Z,61.60
2018-03-04T04:45:48.977Z,61.50
2018-03-04T04:48:16.824Z,59.90
2018-03-04T04:50:44.653Z,60.30
2018-03-04T04:53:13.346Z,61.00
2018-03-04T04:55:40.937Z,61.00
2018-03-04T04:58:08.633Z,61.10
2018-03-04T05:00:36.213Z,61.10
2018-03-04T05:03:03.833Z,60.50
2018-03-04T05:05:31.740Z,60.70
2018-03-04T05:07:59.767Z,61.10
2018-03-04T05:10:28.632Z,61.40
2018-03-04T05:12:56.246Z,60.60
2018-03-04T05:15:24.536Z,60.70
2018-03-04T05:17:52.962Z,60.50
2018-03-04T05:20:20.575Z,59.90
2018-03-04T05:22:48.428Z,59.80
2018-03-04T05:25:16.025Z,60.30
2018-03-04T05:27:43.634Z,61.00
2018-03-04T05:30:11.235Z,61.40
2018-03-04T05:32:39.624Z,61.40
2018-03-04T05:35:08.032Z,61.00
2018-03-04T05:37:35.652Z,61.00
2018-03-04T05:40:03.460Z,61.30
2018-03-04T05:42:31.368Z,60.70
2018-03-04T05:44:59.108Z,60.70
2018-03-04T05:47:26.722Z,61.20
2018-03-04T05:49:55.074Z,60.90
2018-03-04T05:52:22.700Z,60.40
2018-03-04T05:54:51.400Z,60.50
2018-03-04T05:57:19.886Z,60.70
2018-03-04T05:59:47.598Z,60.90
2018-03-04T06:02:15.948Z,61.50
2018-03-04T06:04:43.577Z,61.40
2018-03-04T06:07:11.146Z,61.20
2018-03-04T06:09:39.629Z,60.10
2018-03-04T06:12:07.238Z,60.60
2018-03-04T06:14:34.894Z,60.60
2018-03-04T06:17:02.867Z,60.10
2018-03-04T06:19:31.494Z,60.70
2018-03-04T06:21:59.116Z,61.20
2018-03-04T06:24:27.477Z,61.20
2018-03-04T06:26:55.064Z,61.10
2018-03-04T06:29:22.708Z,60.10
2018-03-04T06:31:51.080Z,60.80
2018-03-04T06:34:18.694Z,60.80
2018-03-04T06:36:46.874Z,61.00
2018-03-04T06:39:14.506Z,60.50
2018-03-04T06:41:42.409Z,60.70
2018-03-04T06:44:10.194Z,60.50
2018-03-04T06:46:37.837Z,60.30
2018-03-04T06:49:05.866Z,60.80
2018-03-04T06:51:33.484Z,61.10
2018-03-04T06:54:01.216Z,61.60
2018-03-04T06:56:29.578Z,61.30
2018-03-04T06:58:58.171Z,62.40
2018-03-04T07:01:26.134Z,62.30
2018-03-04T07:03:53.791Z,60.10
2018-03-04T07:06:21.444Z,60.20
2018-03-04T07:08:49.053Z,60.70
2018-03-04T07:11:16.784Z,61.20
2018-03-04T07:13:44.926Z,60.80
2018-03-04T07:16:13.306Z,61.30
2018-03-04T07:18:41.702Z,61.20
2018-03-04T07:21:10.622Z,60.90
2018-03-04T07:23:38.601Z,61.10
2018-03-04T07:26:06.984Z,61.40
2018-03-04T07:28:34.630Z,61.90
2018-03-04T07:31:02.237Z,62.00
2018-03-04T07:33:30.810Z,62.10
2018-03-04T07:35:59.056Z,61.40
2018-03-04T07:38:26.880Z,61.20
2018-03-04T07:40:55.232Z,62.00
2018-03-04T07:43:29.072Z,61.60
2018-03-04T07:45:57.669Z,61.50
2018-03-04T07:48:25.911Z,61.70
2018-03-04T07:50:54.381Z,61.60
2018-03-04T07:53:22.789Z,61.70
2018-03-04T07:55:50.398Z,60.90
2018-03-04T07:58:23.625Z,61.30
2018-03-04T08:00:53.038Z,60.90
2018-03-04T08:03:20.746Z,60.90
2018-03-04T08:05:48.588Z,61.00
2018-03-04T08:08:16.783Z,62.00
2018-03-04T08:10:45.246Z,62.50
2018-03-04T08:13:14.005Z,61.10
2018-03-04T08:15:42.770Z,60.80
2018-03-04T08:18:10.591Z,60.90
2018-03-04T08:20:38.195Z,60.50
2018-03-04T08:23:06.552Z,61.00
2018-03-04T08:25:36.857Z,60.50
2018-03-04T08:28:16.675Z,61.10
2018-03-04T08:30:44.672Z,61.10
2018-03-04T08:33:13.296Z,61.50
2018-03-04T08:35:41.713Z,61.70
2018-03-04T08:38:09.447Z,61.40
2018-03-04T08:40:38.086Z,62.10
2018-03-04T08:43:06.325Z,62.00
2018-03-04T08:45:34.161Z,61.30
2018-03-04T08:48:03.098Z,60.90
2018-03-04T08:50:31.050Z,60.90
2018-03-04T08:52:58.802Z,60.10
2018-03-04T08:55:26.373Z,59.90
2018-03-04T08:57:55.424Z,60.20
2018-03-04T09:00:23.250Z,59.90
2018-03-04T09:02:50.864Z,59.90
2018-03-04T09:05:19.224Z,59.40
2018-03-04T09:07:46.948Z,59.60
2018-03-04T09:10:14.732Z,58.90
2018-03-04T09:12:42.397Z,58.60
2018-03-04T09:15:10.405Z,59.00
2018-03-04T09:17:38.238Z,59.00
2018-03-04T09:20:06.129Z,59.10
2018-03-04T09:22:34.298Z,58.70
2018-03-04T09:25:01.936Z,58.90
2018-03-04T09:27:29.951Z,58.20
2018-03-04T09:29:57.577Z,58.50
2018-03-04T09:32:25.174Z,58.30
2018-03-04T09:34:52.785Z,58.20
2018-03-04T09:37:20.393Z,58.60
2018-03-04T09:39:48.543Z,58.60
2018-03-04T09:42:16.569Z,58.70
2018-03-04T09:44:44.168Z,58.40
2018-03-04T09:47:12.526Z,58.90
2018-03-04T09:49:40.162Z,58.50
2018-03-04T09:52:08.201Z,58.50
2018-03-04T09:54:37.031Z,58.20
2018-03-04T09:57:04.834Z,57.90
2018-03-04T09:59:33.721Z,58.60
2018-03-04T10:02:01.585Z,58.00
2018-03-04T10:04:40.927Z,57.40
2018-03-04T10:07:10.104Z,56.90
2018-03-04T10:09:37.767Z,56.90
2018-03-04T10:12:16.700Z,57.30
2018-03-04T10:14:44.981Z,55.20
2018-03-04T10:17:12.737Z,55.70
2018-03-04T10:19:40.592Z,54.50
2018-03-04T10:22:08.174Z,53.50
2018-03-04T10:24:35.934Z,53.90
2018-03-04T10:27:03.507Z,51.60
2018-03-04T10:29:33.393Z,51.70
2018-03-04T10:32:01.364Z,52.30
2018-03-04T10:34:28.990Z,50.20
2018-03-04T10:36:56.565Z,50.70
2018-03-04T10:39:24.152Z,49.80
2018-03-04T10:41:52.133Z,49.00
2018-03-04T10:44:20.105Z,49.40
2018-03-04T10:46:48.969Z,48.50
2018-03-04T10:49:16.825Z,47.50
2018-03-04T10:51:45.125Z,47.90
2018-03-04T10:54:13.376Z,46.70
2018-03-04T10:56:41.136Z,47.10
2018-03-04T10:59:10.133Z,47.40
2018-03-04T11:01:41.900Z,47.30
2018-03-04T11:04:10.045Z,47.00
2018-03-04T11:06:37.653Z,46.00
2018-03-04T11:09:05.246Z,45.00
2018-03-04T11:11:32.872Z,45.10
2018-03-04T11:14:00.447Z,43.00
2018-03-04T11:16:28.032Z,42.10
2018-03-04T11:18:55.929Z,42.80
2018-03-04T11:21:23.631Z,42.20
2018-03-04T11:23:51.340Z,41.50
2018-03-04T11:26:18.937Z,40.40
2018-03-04T11:28:46.973Z,39.90
2018-03-04T11:31:14.595Z,39.00
2018-03-04T11:33:42.259Z,38.20
2018-03-04T11:36:09.879Z,37.80
2018-03-04T11:38:37.489Z,38.20
2018-03-04T11:41:05.095Z,37.50
2018-03-04T11:43:33.484Z,35.80
2018-03-04T11:46:01.103Z,35.80
2018-03-04T11:48:28.915Z,35.20
2018-03-04T11:50:57.285Z,33.60
2018-03-04T11:53:25.496Z,34.20
2018-03-04T11:55:53.156Z,32.20
2018-03-04T11:58:20.756Z,32.20
2018-03-04T12:00:48.341Z,32.40
2018-03-04T12:03:15.987Z,30.80
2018-03-04T12:05:44.359Z,30.10
2018-03-04T12:08:12.158Z,30.10
2018-03-04T12:10:40.569Z,30.50
2018-03-04T12:13:08.212Z,29.60
2018-03-04T12:15:35.817Z,29.20
2018-03-04T12:18:03.800Z,29.00
2018-03-04T12:20:31.426Z,30.00
2018-03-04T12:22:59.242Z,30.10
2018-03-04T12:25:26.911Z,29.80
2018-03-04T12:27:54.515Z,29.10
2018-03-04T12:30:22.207Z,29.30
2018-03-04T12:32:50.681Z,30.20
2018-03-04T12:35:19.145Z,29.30
2018-03-04T12:37:47.572Z,29.70
2018-03-04T12:40:15.167Z,29.60
2018-03-04T12:42:42.811Z,28.80
2018-03-04T12:45:10.384Z,28.70
2018-03-04T12:47:37.985Z,27.80
2018-03-04T12:50:05.647Z,27.90
2018-03-04T12:52:33.450Z,28.70
2018-03-04T12:55:01.864Z,29.10
2018-03-04T12:57:29.455Z,29.10
2018-03-04T12:59:57.170Z,27.70
2018-03-04T13:02:24.764Z,28.10
2018-03-04T13:04:53.165Z,27.90
2018-03-04T13:07:21.632Z,28.30
2018-03-04T13:09:49.222Z,28.20
2018-03-04T13:12:16.798Z,29.20
2018-03-04T13:14:44.828Z,28.00
2018-03-04T13:17:12.873Z,28.30
2018-03-04T13:19:40.655Z,28.50
2018-03-04T13:22:08.237Z,28.70
2018-03-04T13:24:36.589Z,30.40
2018-03-04T13:27:04.190Z,30.30
2018-03-04T13:29:31.984Z,30.00
2018-03-04T13:32:00.402Z,30.40
2018-03-04T13:34:28.043Z,30.20
2018-03-04T13:36:56.741Z,30.10
2018-03-04T13:39:25.037Z,29.50
2018-03-04T13:41:52.712Z,29.80
2018-03-04T13:44:21.466Z,31.10
2018-03-04T13:46:49.808Z,31.40
2018-03-04T13:49:17.393Z,30.50
2018-03-04T13:51:45.717Z,31.60
2018-03-04T13:54:13.302Z,30.80
2018-03-04T13:56:40.870Z,30.50
2018-03-04T13:59:09.301Z,30.50
2018-03-04T14:01:37.550Z,29.70
2018-03-04T14:04:05.151Z,30.00
2018-03-04T14:06:32.717Z,28.70
2018-03-04T14:09:00.366Z,29.10
2018-03-04T14:11:27.955Z,27.70
2018-03-04T14:13:55.697Z,27.80
2018-03-04T14:16:23.495Z,28.30
2018-03-04T14:18:51.990Z,27.90
2018-03-04T14:21:20.328Z,27.40
2018-03-04T14:23:47.924Z,27.50
2018-03-04T14:26:16.271Z,26.80
2018-03-04T14:28:44.965Z,26.70
2018-03-04T14:31:12.731Z,26.90
2018-03-04T14:33:40.368Z,25.90
2018-03-04T14:36:07.946Z,26.70
2018-03-04T14:38:35.527Z,27.60
2018-03-04T14:41:03.131Z,27.40
2018-03-04T14:43:31.379Z,27.80
2018-03-04T14:45:59.849Z,27.60
2018-03-04T14:48:27.443Z,28.90
2018-03-04T14:50:55.272Z,29.40
2018-03-04T14:53:22.862Z,29.80
2018-03-04T14:55:50.752Z,29.70
2018-03-04T14:58:18.748Z,29.70
2018-03-04T15:00:46.410Z,30.70
2018-03-04T15:03:14.106Z,30.90
2018-03-04T15:05:42.472Z,31.80
2018-03-04T15:08:10.564Z,30.70
2018-03-04T15:10:39.291Z,31.00
2018-03-04T15:13:07.081Z,31.10
2018-03-04T15:15:35.488Z,32.50
2018-03-04T15:18:03.848Z,33.00
2018-03-04T15:20:31.437Z,32.20
2018-03-04T15:22:59.756Z,33.00
2018-03-04T15:25:27.554Z,32.20
2018-03-04T15:27:55.198Z,32.20
2018-03-04T15:30:22.825Z,32.50
2018-03-04T15:32:50.405Z,32.90
2018-03-04T15:35:18.001Z,33.90
2018-03-04T15:37:45.998Z,34.40
2018-03-04T15:40:13.954Z,34.90
2018-03-04T15:42:42.307Z,35.10
2018-03-04T15:45:10.704Z,34.90
2018-03-04T15:47:38.437Z,35.00
2018-03-04T15:50:06.271Z,35.40
2018-03-04T15:52:34.007Z,35.90
2018-03-04T15:55:01.982Z,36.10
2018-03-04T15:57:30.408Z,36.90
2018-03-04T15:59:58.086Z,36.50
2018-03-04T16:02:25.864Z,36.70
2018-03-04T16:04:54.357Z,37.20
2018-03-04T16:07:22.120Z,37.70
2018-03-04T16:09:49.764Z,38.30
2018-03-04T16:12:17.605Z,38.20
2018-03-04T16:14:45.249Z,38.70
2018-03-04T16:17:12.836Z,39.30
2018-03-04T16:19:40.446Z,39.90
2018-03-04T16:22:08.128Z,40.20
2018-03-04T16:24:36.007Z,40.90
2018-03-04T16:27:03.589Z,40.40
2018-03-04T16:29:31.208Z,40.20
2018-03-04T16:31:58.811Z,40.00
2018-03-04T16:34:26.386Z,40.40
2018-03-04T16:36:55.233Z,41.00
2018-03-04T16:39:22.828Z,40.60
2018-03-04T16:41:50.434Z,40.80
2018-03-04T16:44:18.666Z,41.60
2018-03-04T16:46:47.045Z,42.70
2018-03-04T16:49:15.413Z,43.20
2018-03-04T16:51:43.312Z,42.90
2018-03-04T16:54:10.911Z,43.60
2018-03-04T16:56:38.494Z,43.80
2018-03-04T17:01:32.799Z,43.40
2018-03-04T17:04:00.428Z,43.40
2018-03-04T17:06:28.007Z,43.60
2018-03-04T17:08:56.154Z,44.60
2018-03-04T17:11:24.246Z,44.80
2018-03-04T17:13:51.878Z,44.90
2018-03-04T17:16:19.490Z,44.90
2018-03-04T17:18:47.639Z,45.10
2018-03-04T17:21:16.578Z,45.50
2018-03-04T17:23:44.209Z,44.80
2018-03-04T17:26:11.820Z,44.80
2018-03-04T17:28:39.452Z,44.70
2018-03-04T17:31:07.821Z,45.20
2018-03-04T17:33:36.633Z,44.90
2018-03-04T17:36:04.870Z,44.10
2018-03-04T17:38:33.876Z,44.60
2018-03-04T17:41:02.241Z,44.40
2018-03-04T17:43:29.846Z,45.30
2018-03-04T17:45:57.423Z,45.20
2018-03-04T17:48:25.907Z,45.10
2018-03-04T17:50:54.819Z,45.40
2018-03-04T17:53:22.759Z,45.70
2018-03-04T17:55:50.390Z,45.80
2018-03-04T17:58:18.848Z,46.00
2018-03-04T18:00:46.452Z,45.30
2018-03-04T18:03:15.570Z,45.80
2018-03-04T18:05:44.355Z,45.30
2018-03-04T18:08:11.962Z,45.50
2018-03-04T18:10:39.657Z,46.00
2018-03-04T18:13:07.243Z,45.70
2018-03-04T18:15:35.007Z,45.90
2018-03-04T18:18:02.607Z,46.10
2018-03-04T18:20:30.232Z,46.00
2018-03-04T18:22:58.889Z,46.30
2018-03-04T18:25:26.642Z,46.40
2018-03-04T18:27:54.326Z,46.90
2018-03-04T18:30:21.960Z,47.50
2018-03-04T18:32:50.353Z,48.50
2018-03-04T18:35:17.952Z,48.20
2018-03-04T18:37:45.677Z,47.50
2018-03-04T18:40:14.075Z,47.60
2018-03-04T18:42:41.667Z,46.60
2018-03-04T18:45:09.411Z,46.40
2018-03-04T18:47:38.157Z,46.30
2018-03-04T18:50:05.828Z,46.20
2018-03-04T18:52:34.191Z,46.50
2018-03-04T18:55:01.811Z,46.40
2018-03-04T18:57:29.407Z,46.40
2018-03-04T18:59:58.090Z,46.80
2018-03-04T19:02:25.695Z,46.30
2018-03-04T19:04:53.328Z,46.30
2018-03-04T19:07:21.712Z,46.90
2018-03-04T19:09:50.116Z,46.80
2018-03-04T19:12:17.722Z,46.60
2018-03-04T19:14:56.291Z,46.70
2018-03-04T19:17:24.940Z,46.80
2018-03-04T19:19:52.531Z,46.80
2018-03-04T19:22:20.201Z,46.60
2018-03-04T19:24:49.362Z,47.10
2018-03-04T19:27:16.979Z,46.40
2018-03-04T19:29:44.621Z,46.40
2018-03-04T19:32:13.007Z,47.10
2018-03-04T19:34:41.400Z,47.40
2018-03-04T19:37:09.815Z,47.30
2018-03-04T19:39:37.393Z,46.80
2018-03-04T19:42:05.061Z,47.10
2018-03-04T19:44:32.913Z,47.10
2018-03-04T19:47:02.360Z,48.00
2018-03-04T19:49:30.759Z,48.20
2018-03-04T19:51:58.410Z,48.00
2018-03-04T19:54:26.929Z,48.70
2018-03-04T19:56:54.550Z,48.40
2018-03-04T19:59:23.796Z,48.50
2018-03-04T20:01:51.410Z,48.60
2018-03-04T20:04:19.989Z,49.10
2018-03-04T20:06:47.632Z,48.80
2018-03-04T20:09:15.328Z,48.40
2018-03-04T20:11:44.018Z,49.00
2018-03-04T20:14:11.606Z,48.40
2018-03-04T20:16:40.139Z,48.20
2018-03-04T20:19:08.639Z,48.50
2018-03-04T20:21:36.736Z,48.10
2018-03-04T20:24:04.360Z,48.20
2018-03-04T20:26:33.278Z,48.50
2018-03-04T20:29:00.984Z,48.00
2018-03-04T20:31:29.009Z,48.00
2018-03-04T20:33:56.608Z,47.90
2018-03-04T20:36:25.283Z,48.10
2018-03-04T20:38:53.266Z,47.60
2018-03-04T20:41:21.775Z,47.80
2018-03-04T20:43:50.497Z,47.90
2018-03-04T20:46:18.260Z,48.30
2018-03-04T20:48:46.000Z,48.50
2018-03-04T20:51:14.262Z,48.70
2018-03-04T20:53:42.502Z,48.70
2018-03-04T20:56:12.806Z,49.10
2018-03-04T20:58:41.024Z,49.00
2018-03-04T21:01:08.711Z,49.10
2018-03-04T21:03:36.786Z,48.90
2018-03-04T21:06:04.687Z,49.40
2018-03-04T21:08:33.089Z,49.50
2018-03-04T21:11:00.765Z,49.30
2018-03-04T21:13:28.802Z,49.20
2018-03-04T21:15:57.303Z,49.00
2018-03-04T21:18:31.867Z,49.10
2018-03-04T21:20:59.862Z,49.30
2018-03-04T21:23:27.904Z,49.20
2018-03-04T21:25:56.330Z,49.20
2018-03-04T21:28:24.676Z,49.40
2018-03-04T21:30:53.447Z,49.90
2018-03-04T21:33:21.150Z,49.50
2018-03-04T21:35:48.854Z,49.80
2018-03-04T21:38:16.886Z,51.20
2018-03-04T21:40:45.266Z,51.10
2018-03-04T21:43:12.897Z,50.90
2018-03-04T21:45:40.643Z,50.00
2018-03-04T21:48:08.354Z,49.90
2018-03-04T21:50:36.093Z,49.90
2018-03-04T21:53:04.724Z,49.80
2018-03-04T21:55:32.373Z,49.50
2018-03-04T21:58:00.127Z,49.70
2018-03-04T22:00:28.207Z,49.40
2018-03-04T22:02:55.920Z,49.40
2018-03-04T22:05:23.545Z,49.80
2018-03-04T22:07:51.632Z,50.80
2018-03-04T22:10:20.326Z,51.00
2018-03-04T22:12:50.973Z,51.00
2018-03-04T22:15:19.609Z,51.20
2018-03-04T22:17:48.018Z,51.10
2018-03-04T22:20:16.846Z,51.10
2018-03-04T22:22:45.266Z,51.70
2018-03-04T22:25:14.015Z,51.00
2018-03-04T22:27:42.442Z,50.90
2018-03-04T22:30:10.249Z,51.10
2018-03-04T22:32:37.910Z,51.00
2018-03-04T22:35:06.649Z,51.50
2018-03-04T22:37:34.750Z,51.80
2018-03-04T22:40:04.065Z,51.80
2018-03-04T22:42:32.056Z,51.30
2018-03-04T22:44:59.760Z,51.40
2018-03-04T22:47:29.022Z,50.40
2018-03-04T22:49:56.669Z,51.60
2018-03-04T22:52:25.879Z,52.30
2018-03-04T22:54:54.106Z,51.80
2018-03-04T22:57:21.723Z,51.80
2018-03-04T22:59:49.767Z,51.60
2018-03-04T23:02:18.812Z,51.80
2018-03-04T23:04:46.512Z,51.90
2018-03-04T23:07:14.996Z,51.90
2018-03-04T23:09:43.278Z,52.00
2018-03-04T23:12:11.431Z,52.20
2018-03-04T23:14:40.148Z,52.80
2018-03-04T23:17:08.032Z,52.00
2018-03-04T23:19:37.657Z,52.00
2018-03-04T23:22:05.380Z,52.00
2018-03-04T23:24:35.383Z,52.40
2018-03-04T23:27:03.005Z,52.00
2018-03-04T23:29:31.727Z,52.10
2018-03-04T23:32:00.478Z,52.10
2018-03-04T23:34:28.175Z,52.10
2018-03-04T23:36:56.841Z,51.90
2018-03-04T23:39:24.927Z,52.40
2018-03-04T23:41:53.238Z,52.20
2018-03-04T23:44:21.047Z,52.10
2018-03-04T23:46:49.680Z,51.90
2018-03-04T23:49:18.150Z,51.50
2018-03-04T23:51:47.092Z,50.40
2018-03-04T23:54:14.731Z,50.20
2018-03-04T23:56:42.510Z,50.20
2018-03-04T23:59:10.309Z,50.10
